Time;durP1;ratioP1;P1;durP2;ratioP2;P2;SDS_P1;SDS_P2;PMS_P1;PMS_P2;Temp;Humidity;BMP_temperature;BMP_pressure;BME280_temperature;BME280_humidity;BME280_pressure;Samples;Min_cycle;Max_cycle;Signal;HPM_P1;HPM_P2
2023/12/05 00:00:56;;;;;;;170.93;50.70;;;3.10;99.90;;;;;;5031391;28;20465;-85
2023/12/05 00:03:21;;;;;;;148.90;57.00;;;3.10;99.90;;;;;;5018774;28;20179;-85
2023/12/05 00:05:47;;;;;;;165.73;51.17;;;3.10;99.90;;;;;;5033703;28;20188;-86
2023/12/05 00:08:13;;;;;;;155.37;56.57;;;3.10;99.90;;;;;;5042725;28;20216;-85
2023/12/05 00:10:39;;;;;;;149.48;42.55;;;3.10;99.90;;;;;;5038776;28;20186;-86
2023/12/05 00:13:07;;;;;;;158.80;55.63;;;3.20;99.90;;;;;;5040333;28;20214;-86
2023/12/05 00:15:33;;;;;;;149.57;48.10;;;3.20;99.90;;;;;;5045081;28;20206;-86
2023/12/05 00:17:58;;;;;;;161.50;45.17;;;3.20;99.90;;;;;;5036258;28;20583;-86
2023/12/05 00:20:24;;;;;;;163.03;52.60;;;3.20;99.90;;;;;;5039313;28;20190;-85
2023/12/05 00:22:49;;;;;;;163.57;49.37;;;3.20;99.90;;;;;;5038023;28;20261;-86
2023/12/05 00:25:15;;;;;;;151.27;44.50;;;3.30;99.90;;;;;;5021408;28;20195;-86
2023/12/05 00:27:40;;;;;;;126.80;35.53;;;3.30;99.90;;;;;;5034900;28;22334;-85
2023/12/05 00:30:06;;;;;;;144.53;50.17;;;3.30;99.90;;;;;;5038350;28;20197;-86
2023/12/05 00:32:32;;;;;;;157.20;56.25;;;3.30;99.90;;;;;;5043005;28;20198;-86
2023/12/05 00:34:58;;;;;;;158.50;51.93;;;3.30;99.90;;;;;;5041501;28;20187;-86
2023/12/05 00:37:23;;;;;;;143.10;54.10;;;3.30;99.90;;;;;;5027388;28;20215;-86
2023/12/05 00:39:49;;;;;;;164.40;44.17;;;3.30;99.90;;;;;;5037361;28;20262;-87
2023/12/05 00:42:14;;;;;;;150.00;57.53;;;3.40;99.90;;;;;;5025258;28;20671;-86
2023/12/05 00:44:39;;;;;;;170.57;54.93;;;3.30;99.90;;;;;;5037990;28;20687;-84
2023/12/05 00:47:05;;;;;;;140.33;56.87;;;3.40;99.90;;;;;;5023353;28;20260;-86
2023/12/05 00:49:34;;;;;;;154.87;52.10;;;3.30;99.90;;;;;;5030971;28;20232;-86
2023/12/05 00:51:59;;;;;;;159.60;48.88;;;3.40;99.90;;;;;;5035180;28;20433;-86
2023/12/05 00:54:25;;;;;;;157.10;52.08;;;3.40;99.90;;;;;;5033296;28;20201;-87
2023/12/05 00:56:50;;;;;;;152.33;46.73;;;3.40;99.90;;;;;;5035508;28;20207;-86
2023/12/05 00:59:17;;;;;;;139.33;54.07;;;3.40;99.90;;;;;;5038748;28;20214;-85
2023/12/05 01:01:42;;;;;;;155.48;46.92;;;3.40;99.90;;;;;;5023164;28;20274;-86
2023/12/05 01:04:08;;;;;;;147.67;54.30;;;3.40;99.90;;;;;;5024673;28;20219;-86
2023/12/05 01:06:33;;;;;;;159.07;52.37;;;3.40;99.90;;;;;;5038254;28;20202;-86
2023/12/05 01:08:59;;;;;;;141.30;53.53;;;3.40;99.90;;;;;;5031483;28;20229;-86
2023/12/05 01:11:24;;;;;;;180.60;50.50;;;3.40;99.90;;;;;;5034587;28;20194;-86
2023/12/05 01:13:50;;;;;;;154.43;52.10;;;3.50;99.90;;;;;;5033347;28;20184;-86
2023/12/05 01:16:15;;;;;;;145.37;46.67;;;3.40;99.90;;;;;;5027967;28;20191;-86
2023/12/05 01:18:41;;;;;;;176.30;52.73;;;3.40;99.90;;;;;;5035480;28;20267;-85
2023/12/05 01:21:07;;;;;;;151.33;47.07;;;3.40;99.90;;;;;;5034177;28;20553;-85
2023/12/05 01:23:32;;;;;;;173.50;48.27;;;3.50;99.90;;;;;;5034302;28;20207;-85
2023/12/05 01:25:58;;;;;;;161.47;49.80;;;3.50;99.90;;;;;;5042667;28;20182;-85
2023/12/05 01:28:23;;;;;;;166.73;54.40;;;3.50;99.90;;;;;;5040250;28;20210;-85
2023/12/05 01:30:49;;;;;;;186.97;50.43;;;3.50;99.90;;;;;;5035255;28;20178;-85
2023/12/05 01:33:14;;;;;;;167.30;46.93;;;3.50;99.90;;;;;;5032654;28;20202;-86
2023/12/05 01:35:40;;;;;;;165.50;46.20;;;3.50;99.90;;;;;;5036660;28;20194;-86
2023/12/05 01:38:05;;;;;;;154.10;54.47;;;3.60;99.90;;;;;;5040231;28;20218;-86
2023/12/05 01:40:31;;;;;;;157.27;50.30;;;3.50;99.90;;;;;;5033820;28;20182;-87
2023/12/05 01:42:56;;;;;;;150.20;47.83;;;3.60;99.90;;;;;;5041125;28;20206;-86
2023/12/05 01:45:22;;;;;;;162.77;45.53;;;3.50;99.90;;;;;;5034259;28;20266;-85
2023/12/05 01:47:48;;;;;;;164.27;53.20;;;3.60;99.90;;;;;;5037440;28;20222;-84
2023/12/05 01:50:20;;;;;;;185.38;54.20;;;3.60;99.90;;;;;;5023973;28;20273;-86
2023/12/05 01:52:49;;;;;;;168.57;49.88;;;3.60;99.90;;;;;;5038066;28;20194;-85
2023/12/05 01:55:15;;;;;;;168.48;47.05;;;3.60;99.90;;;;;;5031947;28;20183;-86
2023/12/05 01:57:42;;;;;;;175.88;53.17;;;3.60;99.90;;;;;;5039819;28;20209;-86
2023/12/05 02:00:08;;;;;;;172.45;50.08;;;3.60;99.90;;;;;;5041045;28;20195;-86
2023/12/05 02:02:35;;;;;;;179.82;50.67;;;3.60;99.90;;;;;;5039233;28;20202;-87
2023/12/05 02:05:02;;;;;;;176.82;51.03;;;3.60;99.90;;;;;;5039087;28;20179;-87
2023/12/05 02:07:28;;;;;;;191.52;47.65;;;3.70;99.90;;;;;;5016218;28;20215;-86
2023/12/05 02:09:54;;;;;;;145.23;43.50;;;3.70;99.90;;;;;;5032078;28;20186;-86
2023/12/05 02:12:19;;;;;;;163.90;48.20;;;3.70;99.90;;;;;;5020741;28;20182;-86
2023/12/05 02:14:45;;;;;;;171.83;50.80;;;3.80;99.90;;;;;;5043490;28;20214;-86
2023/12/05 02:17:16;;;;;;;161.70;48.83;;;3.70;99.90;;;;;;5042198;28;20197;-86
2023/12/05 02:19:42;;;;;;;142.85;47.40;;;3.80;99.90;;;;;;5041299;28;20703;-86
2023/12/05 02:22:44;;;;;;;138.37;42.33;;;3.80;99.90;;;;;;5034423;28;20191;-86
2023/12/05 02:25:28;;;;;;;142.80;48.55;;;3.80;99.90;;;;;;5034953;28;20210;-86
2023/12/05 02:27:54;;;;;;;161.63;44.08;;;3.80;99.90;;;;;;5042842;28;20218;-86
2023/12/05 02:30:20;;;;;;;135.40;50.47;;;3.90;99.90;;;;;;5048401;28;20236;-86
2023/12/05 02:32:45;;;;;;;158.00;44.37;;;3.80;99.90;;;;;;5045092;28;20195;-86
2023/12/05 02:35:12;;;;;;;138.20;46.40;;;3.90;99.90;;;;;;5033125;28;20234;-86
2023/12/05 02:38:04;;;;;;;157.00;48.47;;;3.90;99.90;;;;;;5044365;28;20249;-86
2023/12/05 02:40:41;;;;;;;124.97;43.47;;;3.90;99.90;;;;;;5044692;28;20180;-85
2023/12/05 02:43:12;;;;;;;158.75;44.67;;;3.90;99.90;;;;;;5045511;28;20250;-86
2023/12/05 02:45:39;;;;;;;150.30;44.35;;;4.00;99.90;;;;;;5032909;28;20187;-85
2023/12/05 02:48:08;;;;;;;132.70;45.58;;;4.00;99.90;;;;;;5034873;28;20229;-86
2023/12/05 02:50:34;;;;;;;151.05;43.00;;;4.00;99.90;;;;;;5043021;28;20183;-86
2023/12/05 02:52:59;;;;;;;147.83;46.20;;;4.00;99.90;;;;;;5026577;28;20225;-86
2023/12/05 02:55:25;;;;;;;148.73;42.47;;;4.10;99.90;;;;;;5034085;28;20656;-86
2023/12/05 02:57:50;;;;;;;158.30;45.80;;;4.10;99.90;;;;;;5046587;28;20203;-86
2023/12/05 03:00:16;;;;;;;123.73;44.13;;;4.10;99.90;;;;;;5042945;28;20191;-86
2023/12/05 03:02:41;;;;;;;147.20;43.73;;;4.10;99.90;;;;;;5032307;28;20191;-86
2023/12/05 03:05:07;;;;;;;160.93;45.20;;;4.10;99.90;;;;;;5021185;28;20195;-86
2023/12/05 03:07:33;;;;;;;142.90;42.23;;;4.10;99.90;;;;;;5048463;28;20219;-86
2023/12/05 03:09:58;;;;;;;161.37;43.17;;;4.20;99.90;;;;;;5044388;28;20450;-85
2023/12/05 03:12:24;;;;;;;145.43;39.60;;;4.20;99.90;;;;;;5030748;28;20191;-85
2023/12/05 03:14:49;;;;;;;149.43;46.87;;;4.20;99.90;;;;;;5041586;28;20187;-85
2023/12/05 03:17:15;;;;;;;150.33;38.10;;;4.20;99.90;;;;;;5031806;28;20187;-87
2023/12/05 03:19:40;;;;;;;143.90;42.40;;;4.20;99.90;;;;;;5037698;28;20209;-84
2023/12/05 03:22:06;;;;;;;150.00;47.87;;;4.20;99.90;;;;;;5048151;28;20182;-86
2023/12/05 03:24:31;;;;;;;135.70;43.23;;;4.20;99.90;;;;;;5048674;28;20211;-86
2023/12/05 03:26:57;;;;;;;129.17;34.60;;;4.20;99.90;;;;;;5051289;28;20218;-86
2023/12/05 03:29:22;;;;;;;160.27;45.30;;;4.20;99.90;;;;;;5047323;28;20199;-86
2023/12/05 03:31:48;;;;;;;149.70;48.60;;;4.20;99.90;;;;;;5038872;28;20178;-86
2023/12/05 03:34:13;;;;;;;159.70;44.47;;;4.20;99.90;;;;;;5036413;28;20167;-85
2023/12/05 03:36:39;;;;;;;136.80;42.20;;;4.20;99.90;;;;;;5044027;28;20178;-86
2023/12/05 03:39:05;;;;;;;157.03;43.07;;;4.20;99.90;;;;;;5049953;28;20198;-86
2023/12/05 03:41:30;;;;;;;152.47;45.33;;;4.30;99.90;;;;;;5050175;28;20179;-85
2023/12/05 03:43:56;;;;;;;150.73;43.07;;;4.30;99.90;;;;;;5027137;28;20182;-85
2023/12/05 03:46:21;;;;;;;150.37;46.13;;;4.30;99.90;;;;;;5042045;28;20214;-86
2023/12/05 03:48:47;;;;;;;149.07;44.63;;;4.30;99.90;;;;;;5032124;28;20210;-87
2023/12/05 03:51:13;;;;;;;139.33;44.27;;;4.30;99.90;;;;;;5031671;28;20664;-87
2023/12/05 03:53:39;;;;;;;147.25;44.30;;;4.30;99.90;;;;;;5026393;28;20179;-86
2023/12/05 03:56:05;;;;;;;154.70;43.17;;;4.30;99.90;;;;;;5035148;28;20198;-86
2023/12/05 03:58:30;;;;;;;131.25;41.67;;;4.30;99.90;;;;;;5044338;28;20223;-86
2023/12/05 04:00:56;;;;;;;128.83;38.03;;;4.30;99.90;;;;;;5037344;28;20210;-87
2023/12/05 04:03:21;;;;;;;136.80;40.83;;;4.30;99.90;;;;;;5041008;28;20197;-86
2023/12/05 04:05:47;;;;;;;116.97;37.53;;;4.40;99.90;;;;;;5029491;28;20191;-86
2023/12/05 04:08:12;;;;;;;135.90;43.53;;;4.40;99.90;;;;;;5031623;28;20266;-86
2023/12/05 04:10:38;;;;;;;110.00;40.10;;;4.40;99.90;;;;;;5032191;28;20190;-86
2023/12/05 04:13:03;;;;;;;127.90;38.40;;;4.40;99.90;;;;;;5038817;28;20214;-86
2023/12/05 04:15:29;;;;;;;135.37;36.90;;;4.40;99.90;;;;;;5036802;28;20190;-86
2023/12/05 04:17:55;;;;;;;116.23;35.57;;;4.50;99.90;;;;;;5032680;28;20211;-86
2023/12/05 04:20:21;;;;;;;94.37;36.87;;;4.50;99.90;;;;;;5011247;28;20194;-87
2023/12/05 04:22:47;;;;;;;108.43;40.50;;;4.60;99.90;;;;;;5033415;28;20202;-87
2023/12/05 04:25:12;;;;;;;87.30;39.37;;;4.60;99.90;;;;;;5037053;28;20217;-86
2023/12/05 04:27:38;;;;;;;107.20;38.30;;;4.60;99.90;;;;;;5037309;28;20223;-86
2023/12/05 04:30:04;;;;;;;101.33;37.40;;;4.60;99.90;;;;;;5039998;28;20181;-86
2023/12/05 04:32:30;;;;;;;110.95;37.63;;;4.60;99.90;;;;;;5042809;28;20221;-86
2023/12/05 04:34:55;;;;;;;119.73;38.17;;;4.60;99.90;;;;;;5030013;28;20182;-86
2023/12/05 04:37:21;;;;;;;97.23;37.20;;;4.60;99.90;;;;;;5039910;28;20361;-86
2023/12/05 04:39:46;;;;;;;98.60;34.83;;;4.60;99.90;;;;;;5031917;28;20317;-86
2023/12/05 04:42:12;;;;;;;142.17;42.87;;;4.70;99.90;;;;;;5037756;28;20199;-86
2023/12/05 04:44:37;;;;;;;101.57;36.27;;;4.70;99.90;;;;;;5033166;28;20199;-85
2023/12/05 04:47:03;;;;;;;118.20;36.10;;;4.80;99.90;;;;;;5023881;28;20693;-87
2023/12/05 04:49:29;;;;;;;121.03;40.03;;;4.80;99.90;;;;;;5024567;28;20185;-86
2023/12/05 04:51:55;;;;;;;108.43;34.50;;;4.90;99.90;;;;;;5029046;28;20218;-86
2023/12/05 04:54:21;;;;;;;116.80;40.30;;;4.90;99.90;;;;;;5019444;28;20182;-85
2023/12/05 04:56:46;;;;;;;95.10;32.10;;;5.00;99.90;;;;;;5029835;28;20195;-86
2023/12/05 04:59:12;;;;;;;135.13;38.70;;;5.00;99.90;;;;;;5029352;28;20211;-87
2023/12/05 05:01:38;;;;;;;129.43;41.63;;;5.00;99.90;;;;;;5024092;28;20198;-87
2023/12/05 05:04:04;;;;;;;92.77;35.00;;;5.00;99.90;;;;;;5010958;28;20608;-87
2023/12/05 05:06:29;;;;;;;111.77;34.40;;;5.00;99.90;;;;;;5035987;28;20501;-86
2023/12/05 05:08:55;;;;;;;95.73;35.73;;;5.10;99.90;;;;;;5035215;28;20262;-86
2023/12/05 05:11:20;;;;;;;64.93;21.73;;;5.20;99.90;;;;;;5029098;28;20247;-86
2023/12/05 05:13:46;;;;;;;80.87;26.83;;;5.20;99.90;;;;;;5032201;28;20202;-87
2023/12/05 05:16:11;;;;;;;87.40;26.70;;;5.30;99.90;;;;;;5025090;28;20187;-86
2023/12/05 05:18:37;;;;;;;142.30;44.77;;;5.30;99.90;;;;;;5025795;28;20566;-87
2023/12/05 05:21:06;;;;;;;66.30;22.43;;;5.40;99.90;;;;;;5027995;28;20180;-87
2023/12/05 05:23:33;;;;;;;90.18;30.75;;;5.40;99.90;;;;;;5042181;28;20190;-86
2023/12/05 05:25:58;;;;;;;99.18;33.70;;;5.50;99.90;;;;;;5039465;28;20183;-86
2023/12/05 05:28:24;;;;;;;52.03;19.97;;;5.60;99.90;;;;;;5037356;28;20228;-85
2023/12/05 05:30:54;;;;;;;85.20;30.50;;;5.60;99.90;;;;;;5041360;28;20187;-86
2023/12/05 05:33:23;;;;;;;70.05;24.13;;;5.70;99.90;;;;;;5046374;28;20182;-85
2023/12/05 05:35:48;;;;;;;66.43;24.58;;;5.80;99.90;;;;;;5031356;28;20189;-86
2023/12/05 05:38:14;;;;;;;40.63;13.23;;;5.80;99.90;;;;;;5039828;28;20214;-86
2023/12/05 05:40:43;;;;;;;89.03;33.17;;;5.80;99.90;;;;;;5043756;28;20183;-85
2023/12/05 05:43:09;;;;;;;51.80;18.63;;;5.90;99.90;;;;;;5049548;28;20197;-82
2023/12/05 05:45:34;;;;;;;41.13;14.80;;;6.00;99.90;;;;;;5045584;28;20195;-83
2023/12/05 05:48:00;;;;;;;28.97;11.10;;;6.00;99.90;;;;;;5048960;28;20214;-83
2023/12/05 05:50:25;;;;;;;25.93;8.60;;;6.00;99.90;;;;;;5018279;28;20191;-84
2023/12/05 05:52:51;;;;;;;23.47;8.30;;;6.10;99.90;;;;;;5043633;28;20194;-84
2023/12/05 05:55:18;;;;;;;17.47;7.97;;;6.10;99.90;;;;;;5040090;28;20187;-84
2023/12/05 05:57:44;;;;;;;18.65;7.05;;;6.10;99.90;;;;;;5051764;28;20212;-85
2023/12/05 06:00:11;;;;;;;15.73;6.10;;;6.20;99.90;;;;;;5053549;28;20190;-84
2023/12/05 06:02:37;;;;;;;20.40;6.03;;;6.20;99.90;;;;;;5043943;28;20434;-84
2023/12/05 06:05:03;;;;;;;16.00;6.60;;;6.30;99.90;;;;;;5056189;28;20181;-84
2023/12/05 06:07:29;;;;;;;17.33;5.80;;;6.30;99.90;;;;;;5055558;28;20246;-85
2023/12/05 06:09:54;;;;;;;12.40;4.73;;;6.30;99.90;;;;;;5042753;28;20425;-85
2023/12/05 06:12:21;;;;;;;22.50;6.93;;;6.40;99.90;;;;;;5043028;28;20425;-85
2023/12/05 06:14:46;;;;;;;13.75;6.00;;;6.40;99.90;;;;;;5057011;28;20186;-85
2023/12/05 06:17:12;;;;;;;11.47;6.97;;;6.40;99.90;;;;;;5056945;28;20190;-85
2023/12/05 06:19:37;;;;;;;21.33;9.20;;;6.50;99.90;;;;;;5041351;28;20198;-85
2023/12/05 06:22:03;;;;;;;26.10;12.97;;;6.50;99.90;;;;;;5029290;28;20203;-84
2023/12/05 06:24:28;;;;;;;20.03;11.43;;;6.50;99.90;;;;;;5020805;28;20195;-86
2023/12/05 06:26:54;;;;;;;22.73;12.13;;;6.50;99.90;;;;;;5051214;28;20257;-86
2023/12/05 06:29:19;;;;;;;17.13;9.20;;;6.60;99.90;;;;;;5044386;28;20202;-85
2023/12/05 06:31:45;;;;;;;20.80;7.40;;;6.60;99.90;;;;;;5043918;28;20233;-85
2023/12/05 06:34:11;;;;;;;24.23;9.20;;;6.50;99.90;;;;;;5044816;28;20180;-85
2023/12/05 06:36:36;;;;;;;33.23;10.77;;;6.50;99.90;;;;;;5035844;28;20214;-85
2023/12/05 06:39:03;;;;;;;30.80;10.67;;;6.50;99.90;;;;;;5035883;28;20450;-86
2023/12/05 06:41:28;;;;;;;31.85;11.63;;;6.50;99.90;;;;;;5038753;28;20175;-86
2023/12/05 06:43:54;;;;;;;31.57;11.97;;;6.50;99.90;;;;;;5044904;28;20210;-85
2023/12/05 06:46:19;;;;;;;41.50;15.90;;;6.50;99.90;;;;;;5042936;28;20191;-85
2023/12/05 06:48:46;;;;;;;40.70;16.60;;;6.50;99.90;;;;;;5046965;28;20282;-84
2023/12/05 06:51:20;;;;;;;57.75;18.55;;;6.50;99.90;;;;;;5021696;28;20178;-85
2023/12/05 06:53:48;;;;;;;41.35;17.27;;;6.50;99.90;;;;;;5035266;28;20179;-85
2023/12/05 06:56:15;;;;;;;45.28;17.27;;;6.50;99.90;;;;;;5049754;28;20167;-85
2023/12/05 06:58:41;;;;;;;46.53;16.60;;;6.50;99.90;;;;;;5042484;28;20253;-85
2023/12/05 07:01:07;;;;;;;43.05;16.88;;;6.40;99.90;;;;;;5039334;28;20174;-86
2023/12/05 07:03:33;;;;;;;51.13;17.58;;;6.40;99.90;;;;;;5038170;28;20188;-85
2023/12/05 07:05:59;;;;;;;44.70;15.77;;;6.40;99.90;;;;;;5039300;28;20201;-86
2023/12/05 07:08:24;;;;;;;40.63;14.90;;;6.40;99.90;;;;;;5035995;28;20203;-84
2023/12/05 07:10:50;;;;;;;38.40;14.63;;;6.40;99.90;;;;;;5043528;28;20188;-86
2023/12/05 07:13:15;;;;;;;43.17;13.30;;;6.50;99.90;;;;;;5047177;28;20223;-86
2023/12/05 07:15:42;;;;;;;36.07;13.57;;;6.40;99.90;;;;;;5037130;28;20562;-86
2023/12/05 07:18:08;;;;;;;27.75;13.55;;;6.50;99.90;;;;;;5040975;28;20207;-86
2023/12/05 07:20:34;;;;;;;37.47;13.93;;;6.60;99.90;;;;;;5035543;28;20191;-86
2023/12/05 07:23:03;;;;;;;32.27;13.10;;;6.60;99.90;;;;;;5043460;28;20241;-86
2023/12/05 07:25:29;;;;;;;37.92;12.50;;;6.60;99.90;;;;;;5035733;28;20748;-87
2023/12/05 07:27:55;;;;;;;30.60;13.70;;;6.70;99.90;;;;;;5040920;28;20214;-85
2023/12/05 07:30:20;;;;;;;33.95;13.00;;;6.70;99.90;;;;;;5018712;28;20302;-85
2023/12/05 07:32:46;;;;;;;30.93;13.20;;;6.70;99.90;;;;;;5035070;28;20243;-85
2023/12/05 07:35:11;;;;;;;33.60;14.90;;;6.70;99.90;;;;;;5013317;28;20251;-85
2023/12/05 07:37:37;;;;;;;31.13;12.67;;;6.70;99.90;;;;;;5020870;28;20211;-85
2023/12/05 07:40:05;;;;;;;27.37;10.97;;;6.70;99.90;;;;;;5012074;28;20218;-86
2023/12/05 07:42:31;;;;;;;27.67;11.25;;;6.80;99.90;;;;;;5036523;28;20175;-84
2023/12/05 07:45:19;;;;;;;28.10;11.70;;;6.80;99.90;;;;;;5039141;28;20301;-85
2023/12/05 07:47:48;;;;;;;26.25;10.95;;;6.80;99.90;;;;;;5032437;28;20221;-85
2023/12/05 07:50:18;;;;;;;28.08;11.05;;;6.80;99.90;;;;;;5021179;28;20197;-84
2023/12/05 07:52:51;;;;;;;23.92;10.30;;;6.80;99.90;;;;;;5022184;28;20186;-86
2023/12/05 07:55:20;;;;;;;25.17;10.20;;;6.80;99.90;;;;;;5009677;28;20226;-87
2023/12/05 07:57:47;;;;;;;24.83;10.23;;;6.90;99.90;;;;;;5027644;28;20202;-84
2023/12/05 08:00:17;;;;;;;26.80;10.25;;;6.90;99.90;;;;;;5001865;28;20244;-87
2023/12/05 08:02:46;;;;;;;12.15;7.50;;;6.90;99.90;;;;;;5012407;28;20197;-86
2023/12/05 08:05:15;;;;;;;9.18;5.95;;;6.90;99.90;;;;;;5004796;28;20190;-86
2023/12/05 08:07:41;;;;;;;14.55;6.35;;;7.00;99.90;;;;;;5004877;28;20206;-85
2023/12/05 08:10:17;;;;;;;14.43;5.73;;;7.00;99.90;;;;;;5024090;28;20613;-87
2023/12/05 08:12:43;;;;;;;9.13;4.50;;;7.00;99.90;;;;;;5001387;28;20187;-88
2023/12/05 08:15:09;;;;;;;13.50;4.10;;;7.00;99.90;;;;;;5018301;28;20723;-87
2023/12/05 08:17:35;;;;;;;5.97;3.10;;;7.10;99.90;;;;;;5005899;28;20745;-86
2023/12/05 08:20:00;;;;;;;6.20;3.13;;;7.10;99.90;;;;;;5019631;28;20438;-87
2023/12/05 08:22:26;;;;;;;5.50;3.63;;;7.10;99.90;;;;;;5028967;28;20336;-86
2023/12/05 08:24:53;;;;;;;5.50;3.72;;;7.20;99.90;;;;;;5018226;28;20215;-86
2023/12/05 08:27:18;;;;;;;4.70;2.93;;;7.20;99.90;;;;;;5023783;28;20219;-86
2023/12/05 08:29:44;;;;;;;6.47;4.10;;;7.20;99.90;;;;;;5028867;28;20190;-87
2023/12/05 08:32:15;;;;;;;5.90;3.83;;;7.20;99.90;;;;;;5023916;28;20196;-86
2023/12/05 08:34:41;;;;;;;4.95;2.20;;;7.30;99.90;;;;;;5020470;28;20555;-87
2023/12/05 08:37:06;;;;;;;4.30;2.90;;;7.30;99.90;;;;;;5020552;28;20186;-87
2023/12/05 08:39:32;;;;;;;5.53;3.70;;;7.30;99.90;;;;;;5027071;28;20187;-86
2023/12/05 08:41:59;;;;;;;5.70;3.50;;;7.30;99.90;;;;;;5028131;28;20182;-86
2023/12/05 08:44:25;;;;;;;7.05;3.90;;;7.40;99.90;;;;;;5019005;28;20277;-87
2023/12/05 08:46:50;;;;;;;6.60;4.18;;;7.40;99.90;;;;;;5007930;28;20203;-86
2023/12/05 08:49:16;;;;;;;16.13;8.70;;;7.40;99.90;;;;;;5003740;28;20229;-86
2023/12/05 08:51:42;;;;;;;15.97;9.67;;;7.50;99.90;;;;;;5012398;28;20183;-87
2023/12/05 08:54:07;;;;;;;12.73;9.57;;;7.50;99.90;;;;;;5023486;28;20184;-86
2023/12/05 08:56:33;;;;;;;13.07;9.53;;;7.50;99.90;;;;;;5006799;28;20688;-88
2023/12/05 08:59:00;;;;;;;12.00;8.87;;;7.50;99.90;;;;;;5008534;28;20297;-85
2023/12/05 09:01:28;;;;;;;12.33;7.60;;;7.50;99.90;;;;;;5011705;28;20195;-86
2023/12/05 09:03:57;;;;;;;8.77;7.30;;;7.60;99.90;;;;;;5030134;28;20445;-85
2023/12/05 09:06:22;;;;;;;9.85;7.63;;;7.60;99.90;;;;;;5027044;28;20487;-86
2023/12/05 09:08:57;;;;;;;12.13;6.70;;;7.60;99.90;;;;;;5010535;28;20242;-86
2023/12/05 09:11:23;;;;;;;7.05;6.35;;;7.60;99.90;;;;;;5030202;28;20190;-86
2023/12/05 09:13:58;;;;;;;8.80;7.20;;;7.70;99.90;;;;;;5032678;28;20206;-85
2023/12/05 09:16:24;;;;;;;6.10;5.50;;;7.70;99.90;;;;;;5022859;28;20182;-86
2023/12/05 09:18:51;;;;;;;8.73;6.13;;;7.70;99.90;;;;;;5009441;28;20453;-85
2023/12/05 09:21:19;;;;;;;6.90;4.32;;;7.70;99.90;;;;;;5012088;28;20445;-86
2023/12/05 09:23:52;;;;;;;6.47;4.50;;;7.80;99.90;;;;;;5016421;28;20187;-86
2023/12/05 09:26:32;;;;;;;5.45;4.20;;;7.80;99.90;;;;;;5008668;28;20442;-86
2023/12/05 09:28:57;;;;;;;6.43;4.63;;;7.80;99.90;;;;;;5026005;28;20199;-87
2023/12/05 09:31:23;;;;;;;5.97;3.90;;;7.80;99.90;;;;;;5027107;28;20442;-87
2023/12/05 09:33:49;;;;;;;6.80;4.63;;;7.90;99.90;;;;;;5036442;28;20178;-85
2023/12/05 09:36:15;;;;;;;3.83;3.43;;;7.90;99.90;;;;;;5020481;28;20649;-87
2023/12/05 09:38:47;;;;;;;4.53;3.60;;;7.90;99.90;;;;;;5017482;28;20544;-87
2023/12/05 09:41:20;;;;;;;7.05;3.70;;;7.90;99.90;;;;;;5032667;28;20249;-87
2023/12/05 09:43:48;;;;;;;4.97;4.10;;;7.90;99.90;;;;;;5019338;28;20183;-85
2023/12/05 09:46:16;;;;;;;4.03;2.90;;;8.00;99.90;;;;;;5001994;28;20222;-87
2023/12/05 09:48:50;;;;;;;5.90;3.83;;;8.00;99.90;;;;;;5001627;28;20497;-86
2023/12/05 09:51:16;;;;;;;8.00;3.73;;;8.00;99.90;;;;;;5009236;28;20529;-86
2023/12/05 09:53:44;;;;;;;20.63;10.30;;;8.00;99.90;;;;;;5021457;28;20410;-85
2023/12/05 09:56:10;;;;;;;17.20;8.37;;;8.00;99.90;;;;;;5004903;28;20427;-85
2023/12/05 09:58:46;;;;;;;39.13;19.30;;;8.00;99.40;;;;;;5009901;28;20492;-86
2023/12/05 10:01:34;;;;;;;16.43;7.83;;;8.00;99.30;;;;;;5014665;28;20825;-87
2023/12/05 10:04:01;;;;;;;33.22;12.25;;;8.00;98.80;;;;;;5005660;28;20512;-86
2023/12/05 10:06:31;;;;;;;14.97;7.83;;;8.00;95.40;;;;;;5029767;28;20198;-88
2023/12/05 10:08:58;;;;;;;9.87;4.10;;;8.00;95.70;;;;;;5006416;28;20446;-86
2023/12/05 10:11:27;;;;;;;6.87;5.20;;;8.00;95.20;;;;;;5007895;28;20426;-87
2023/12/05 10:13:53;;;;;;;5.83;4.70;;;8.10;94.80;;;;;;5023743;28;20442;-86
2023/12/05 10:16:36;;;;;;;5.60;4.00;;;8.10;95.90;;;;;;5009152;28;20489;-87
2023/12/05 10:19:04;;;;;;;7.03;3.77;;;8.20;95.30;;;;;;5009796;28;20198;-86
2023/12/05 10:21:30;;;;;;;6.65;3.72;;;8.20;94.80;;;;;;5031719;28;20469;-85
2023/12/05 10:23:55;;;;;;;8.00;5.03;;;8.20;95.00;;;;;;5024006;28;20195;-86
2023/12/05 10:26:21;;;;;;;7.53;3.80;;;8.20;93.80;;;;;;5007553;28;20184;-86
2023/12/05 10:28:54;;;;;;;10.23;3.03;;;8.20;93.30;;;;;;5026824;28;20237;-85
2023/12/05 10:31:20;;;;;;;9.07;5.17;;;8.30;92.20;;;;;;5016460;28;20191;-86
2023/12/05 10:33:49;;;;;;;18.87;6.80;;;8.20;91.40;;;;;;5017106;28;20441;-88
2023/12/05 10:36:16;;;;;;;5.90;4.33;;;8.30;91.00;;;;;;4997060;28;20480;-86
2023/12/05 10:38:58;;;;;;;4.83;3.10;;;8.30;91.00;;;;;;5032448;28;20468;-87
2023/12/05 10:41:25;;;;;;;14.40;6.30;;;8.30;89.10;;;;;;5001909;28;20425;-87
2023/12/05 10:43:55;;;;;;;7.90;4.17;;;8.30;90.50;;;;;;5013704;28;20484;-87
2023/12/05 10:46:26;;;;;;;5.47;3.67;;;8.40;91.10;;;;;;5008446;28;20421;-88
2023/12/05 10:48:51;;;;;;;5.03;3.10;;;8.40;90.80;;;;;;5014630;28;20460;-87
2023/12/05 10:51:17;;;;;;;9.20;4.20;;;8.40;90.40;;;;;;5021420;28;20442;-86
2023/12/05 10:53:43;;;;;;;6.40;5.80;;;8.50;90.40;;;;;;5022877;28;20216;-86
2023/12/05 10:56:16;;;;;;;6.40;4.80;;;8.50;90.60;;;;;;5019535;28;20202;-88
2023/12/05 10:58:49;;;;;;;7.37;4.80;;;8.60;90.40;;;;;;5008912;28;20256;-87
2023/12/05 11:01:27;;;;;;;;;;;;;;;;;;;;;
2023/12/05 11:03:58;;;;;;;7.17;3.90;;;8.70;85.50;;;;;;5022499;28;20505;-88
2023/12/05 11:06:49;;;;;;;5.63;4.77;;;8.70;82.50;;;;;;5004477;28;20485;-85
2023/12/05 11:09:15;;;;;;;5.73;4.40;;;8.80;81.00;;;;;;5009021;28;20461;-87
2023/12/05 11:12:12;;;;;;;;;;;;;;;;;;;;;
2023/12/05 11:14:47;;;;;;;10.10;5.37;;;8.80;77.60;;;;;;5020300;28;20410;-87
2023/12/05 11:17:23;;;;;;;7.53;5.10;;;8.80;74.00;;;;;;5002463;28;20900;-85
2023/12/05 11:20:13;;;;;;;12.03;5.30;;;8.80;76.30;;;;;;5005771;28;20421;-87
2023/12/05 11:22:59;;;;;;;8.03;4.40;;;8.90;74.40;;;;;;5007130;28;20442;-87
2023/12/05 11:25:46;;;;;;;4.33;3.30;;;8.90;65.30;;;;;;5038159;28;20504;-88
2023/12/05 11:28:24;;;;;;;5.80;4.43;;;8.80;58.90;;;;;;5011021;28;20552;-85
2023/12/05 11:31:07;;;;;;;5.40;3.83;;;8.80;52.60;;;;;;5022929;28;20467;-86
2023/12/05 11:33:59;;;;;;;6.03;4.03;;;8.80;49.90;;;;;;5002768;28;20606;-86
2023/12/05 11:36:35;;;;;;;6.10;3.63;;;8.70;47.00;;;;;;5017032;28;20496;-87
2023/12/05 11:43:01;;;;;;;7.70;4.70;;;8.70;46.40;;;;;;5023773;28;20439;-86
2023/12/05 11:45:27;;;;;;;6.97;4.30;;;8.70;50.60;;;;;;5025307;28;20426;-88
2023/12/05 11:47:52;;;;;;;7.40;5.20;;;8.70;45.10;;;;;;5000247;28;20698;-87
2023/12/05 11:50:18;;;;;;;6.33;4.70;;;8.70;36.90;;;;;;5023849;28;20281;-87
2023/12/05 11:52:51;;;;;;;5.77;4.60;;;8.70;40.00;;;;;;5015425;28;20172;-86
2023/12/05 11:55:22;;;;;;;6.47;5.13;;;8.70;41.90;;;;;;5004810;28;20437;-88
2023/12/05 11:57:48;;;;;;;7.50;4.87;;;8.80;39.90;;;;;;5029058;28;20438;-87
2023/12/05 12:00:14;;;;;;;9.83;5.50;;;8.70;39.40;;;;;;5028069;28;20442;-86
2023/12/05 12:02:48;;;;;;;6.00;4.60;;;8.70;38.00;;;;;;5020811;28;20419;-86
2023/12/05 12:05:15;;;;;;;6.10;4.60;;;8.70;32.90;;;;;;5017552;28;20262;-86
2023/12/05 12:07:53;;;;;;;6.23;4.80;;;8.70;35.90;;;;;;5006526;28;20466;-86
2023/12/05 12:10:20;;;;;;;7.57;4.00;;;8.70;38.80;;;;;;5004569;28;20437;-87
2023/12/05 12:12:46;;;;;;;5.60;4.23;;;8.70;43.40;;;;;;5023332;28;20514;-87
2023/12/05 12:15:15;;;;;;;7.90;4.80;;;8.70;43.40;;;;;;5018811;28;20434;-86
2023/12/05 12:17:42;;;;;;;8.33;5.10;;;8.70;42.70;;;;;;5025401;28;20483;-88
2023/12/05 12:20:14;;;;;;;7.43;4.03;;;8.70;40.00;;;;;;5008232;28;20958;-87
2023/12/05 12:22:43;;;;;;;7.60;5.00;;;8.60;40.50;;;;;;5022225;28;20536;-86
2023/12/05 12:25:12;;;;;;;7.13;4.80;;;8.60;40.70;;;;;;5001770;28;20437;-86
2023/12/05 12:27:39;;;;;;;6.00;4.30;;;8.60;35.40;;;;;;5014402;28;20496;-88
2023/12/05 12:30:13;;;;;;;8.73;4.70;;;8.70;45.50;;;;;;5002258;28;20465;-87
2023/12/05 12:33:09;;;;;;;8.17;4.60;;;8.70;40.40;;;;;;4996901;28;20465;-87
2023/12/05 12:35:35;;;;;;;5.30;4.40;;;8.70;40.50;;;;;;4997325;28;20426;-87
2023/12/05 12:38:00;;;;;;;7.67;4.60;;;8.60;38.60;;;;;;5014370;28;20513;-88
2023/12/05 12:40:26;;;;;;;5.90;4.73;;;8.50;38.90;;;;;;4998771;28;20603;-86
2023/12/05 12:42:54;;;;;;;5.93;4.80;;;8.50;42.70;;;;;;5003917;28;20213;-88
2023/12/05 12:45:21;;;;;;;6.80;4.83;;;8.50;49.50;;;;;;4996618;28;20450;-87
2023/12/05 12:47:47;;;;;;;7.97;5.07;;;8.40;52.70;;;;;;5018866;28;20501;-87
2023/12/05 12:50:13;;;;;;;7.57;5.00;;;8.40;57.70;;;;;;5028472;28;20468;-86